createdAt,value
2022-12-20T00:00:52.555Z,2.40
2022-12-20T00:03:20.733Z,2.83
2022-12-20T00:05:48.331Z,2.03
2022-12-20T00:08:15.699Z,2.55
2022-12-20T00:10:43.962Z,2.38
2022-12-20T00:13:11.360Z,2.78
2022-12-20T00:15:38.841Z,2.05
2022-12-20T00:18:06.276Z,2.60
2022-12-20T00:20:33.887Z,2.28
2022-12-20T00:23:00.965Z,1.98
2022-12-20T00:25:28.538Z,2.15
2022-12-20T00:27:55.978Z,2.30
2022-12-20T00:30:23.128Z,2.15
2022-12-20T00:32:50.289Z,2.33
2022-12-20T00:35:17.620Z,1.67
2022-12-20T00:37:45.422Z,2.42
2022-12-20T00:40:12.566Z,1.83
2022-12-20T00:42:39.666Z,2.75
2022-12-20T00:45:06.943Z,1.98
2022-12-20T00:47:34.046Z,2.22
2022-12-20T00:50:01.220Z,2.08
2022-12-20T00:52:28.352Z,1.90
2022-12-20T00:54:55.627Z,1.90
2022-12-20T00:57:22.805Z,2.28
2022-12-20T00:59:49.914Z,1.85
2022-12-20T01:02:17.255Z,2.30
2022-12-20T01:04:44.543Z,2.13
2022-12-20T01:07:11.711Z,1.80
2022-12-20T01:09:38.914Z,1.85
2022-12-20T01:12:06.023Z,2.03
2022-12-20T01:14:33.117Z,2.00
2022-12-20T01:17:00.272Z,2.30
2022-12-20T01:19:27.665Z,2.78
2022-12-20T01:21:54.944Z,1.80
2022-12-20T01:24:22.118Z,1.60
2022-12-20T01:26:49.375Z,1.73
2022-12-20T01:29:16.615Z,2.00
2022-12-20T01:31:43.819Z,2.20
2022-12-20T01:34:11.373Z,1.65
2022-12-20T01:36:38.715Z,1.70
2022-12-20T01:39:16.186Z,1.85
2022-12-20T01:41:43.997Z,1.80
2022-12-20T01:44:20.044Z,1.90
2022-12-20T01:46:48.711Z,1.90
2022-12-20T01:49:15.751Z,2.03
2022-12-20T01:51:44.965Z,1.77
2022-12-20T01:54:17.551Z,2.28
2022-12-20T01:56:47.154Z,1.98
2022-12-20T01:59:14.626Z,1.80
2022-12-20T02:01:42.789Z,1.80
2022-12-20T02:04:10.248Z,2.10
2022-12-20T02:06:37.410Z,2.05
2022-12-20T02:09:06.037Z,2.08
2022-12-20T02:11:39.288Z,1.90
2022-12-20T02:14:19.841Z,1.95
2022-12-20T02:17:13.507Z,1.85
2022-12-20T02:19:40.558Z,1.70
2022-12-20T02:22:08.800Z,1.60
2022-12-20T02:24:51.455Z,2.17
2022-12-20T02:27:26.240Z,1.98
2022-12-20T02:30:02.406Z,1.80
2022-12-20T02:32:31.683Z,1.88
2022-12-20T02:34:59.075Z,1.80
2022-12-20T02:37:26.186Z,1.85
2022-12-20T02:39:53.318Z,1.77
2022-12-20T02:42:22.664Z,1.90
2022-12-20T02:45:16.214Z,2.10
2022-12-20T02:47:46.919Z,1.95
2022-12-20T02:50:15.531Z,1.60
2022-12-20T02:52:42.938Z,1.67
2022-12-20T02:55:10.061Z,1.90
2022-12-20T02:58:01.011Z,2.03
2022-12-20T03:00:31.977Z,2.30
2022-12-20T03:03:18.173Z,2.30
2022-12-20T03:05:46.169Z,1.90
2022-12-20T03:08:13.389Z,2.15
2022-12-20T03:10:40.573Z,2.30
2022-12-20T03:13:08.096Z,2.03
2022-12-20T03:15:35.270Z,2.03
2022-12-20T03:18:02.844Z,2.25
2022-12-20T03:20:30.240Z,2.28
2022-12-20T03:22:57.391Z,1.98
2022-12-20T03:25:24.603Z,2.50
2022-12-20T03:27:51.699Z,2.35
2022-12-20T03:30:18.967Z,2.28
2022-12-20T03:32:46.114Z,2.30
2022-12-20T03:35:13.341Z,2.42
2022-12-20T03:37:40.417Z,2.33
2022-12-20T03:40:07.841Z,2.05
2022-12-20T03:42:35.052Z,2.40
2022-12-20T03:45:02.239Z,2.47
2022-12-20T03:47:29.637Z,2.53
2022-12-20T03:49:57.299Z,2.40
2022-12-20T03:52:24.401Z,2.67
2022-12-20T03:54:51.502Z,2.08
2022-12-20T03:57:18.586Z,2.20
2022-12-20T03:59:46.087Z,2.47
2022-12-20T04:02:13.345Z,2.70
2022-12-20T04:04:40.534Z,2.58
2022-12-20T04:07:07.905Z,2.78
2022-12-20T04:09:35.100Z,2.33
2022-12-20T04:12:02.513Z,2.70
2022-12-20T04:14:29.657Z,2.50
2022-12-20T04:16:56.767Z,2.45
2022-12-20T04:19:23.905Z,2.28
2022-12-20T04:21:51.291Z,2.50
2022-12-20T04:24:18.377Z,2.42
2022-12-20T04:26:45.532Z,2.85
2022-12-20T04:29:12.650Z,2.58
2022-12-20T04:31:40.010Z,2.90
2022-12-20T04:34:07.231Z,2.55
2022-12-20T04:36:34.526Z,2.35
2022-12-20T04:39:01.630Z,2.38
2022-12-20T04:41:28.769Z,2.65
2022-12-20T04:43:57.299Z,2.38
2022-12-20T04:46:25.074Z,2.80
2022-12-20T04:48:58.315Z,2.40
2022-12-20T04:51:26.400Z,2.50
2022-12-20T04:53:53.680Z,2.78
2022-12-20T04:56:23.030Z,2.20
2022-12-20T04:58:51.063Z,2.53
2022-12-20T05:01:18.574Z,1.98
2022-12-20T05:03:46.135Z,2.30
2022-12-20T05:06:13.776Z,2.22
2022-12-20T05:08:40.927Z,1.98
2022-12-20T05:11:08.419Z,2.40
2022-12-20T05:13:35.923Z,1.77
2022-12-20T05:16:03.076Z,2.13
2022-12-20T05:18:30.322Z,2.10
2022-12-20T05:21:16.890Z,2.45
2022-12-20T05:24:03.375Z,1.73
2022-12-20T05:26:32.036Z,2.25
2022-12-20T05:28:59.253Z,2.15
2022-12-20T05:31:26.446Z,2.10
2022-12-20T05:33:54.270Z,2.10
2022-12-20T05:36:21.782Z,1.80
2022-12-20T05:38:48.972Z,1.65
2022-12-20T05:41:16.067Z,1.92
2022-12-20T05:43:43.297Z,1.85
2022-12-20T05:46:10.804Z,2.15
2022-12-20T05:48:37.999Z,2.35
2022-12-20T05:51:05.208Z,1.70
2022-12-20T05:53:32.357Z,1.60
2022-12-20T05:56:01.545Z,2.08
2022-12-20T05:58:28.909Z,2.30
2022-12-20T06:00:56.371Z,2.70
2022-12-20T06:03:23.586Z,2.00
2022-12-20T06:05:50.781Z,1.80
2022-12-20T06:08:18.083Z,2.00
2022-12-20T06:10:45.316Z,1.88
2022-12-20T06:13:12.418Z,2.03
2022-12-20T06:15:39.568Z,1.73
2022-12-20T06:18:07.184Z,1.60
2022-12-20T06:20:34.748Z,2.10
2022-12-20T06:23:02.500Z,1.60
2022-12-20T06:25:29.669Z,2.00
2022-12-20T06:27:57.202Z,1.95
2022-12-20T06:30:28.807Z,2.35
2022-12-20T06:32:59.102Z,1.92
2022-12-20T06:35:26.370Z,2.30
2022-12-20T06:37:53.455Z,2.03
2022-12-20T06:40:20.600Z,2.20
2022-12-20T06:42:47.727Z,1.92
2022-12-20T06:45:14.875Z,2.17
2022-12-20T06:47:42.028Z,2.13
2022-12-20T06:50:09.301Z,2.38
2022-12-20T06:52:36.471Z,2.65
2022-12-20T06:55:04.177Z,2.80
2022-12-20T06:57:31.453Z,2.60
2022-12-20T06:59:58.535Z,2.10
2022-12-20T07:02:27.849Z,2.22
2022-12-20T07:04:55.385Z,2.58
2022-12-20T07:07:22.557Z,2.55
2022-12-20T07:09:49.708Z,2.72
2022-12-20T07:12:16.869Z,2.72
2022-12-20T07:14:44.528Z,2.83
2022-12-20T07:17:11.936Z,2.83
2022-12-20T07:19:42.095Z,2.33
2022-12-20T07:22:12.846Z,3.03
2022-12-20T07:24:39.927Z,2.47
2022-12-20T07:27:08.001Z,2.42
2022-12-20T07:29:36.194Z,2.60
2022-12-20T07:32:03.808Z,2.47
2022-12-20T07:34:30.959Z,2.80
2022-12-20T07:36:58.232Z,2.83
2022-12-20T07:39:25.394Z,2.65
2022-12-20T07:41:55.794Z,2.63
2022-12-20T07:44:23.347Z,2.30
2022-12-20T07:46:50.668Z,2.25
2022-12-20T07:49:17.864Z,2.60
2022-12-20T07:51:47.550Z,2.15
2022-12-20T07:54:19.484Z,2.15
2022-12-20T07:59:16.440Z,1.92
2022-12-20T08:01:45.124Z,2.55
2022-12-20T08:04:15.271Z,2.22
2022-12-20T08:06:42.820Z,2.20
2022-12-20T08:09:12.655Z,2.45
2022-12-20T08:11:40.833Z,2.15
2022-12-20T08:14:08.387Z,2.45
2022-12-20T08:16:35.626Z,2.00
2022-12-20T08:19:02.717Z,1.95
2022-12-20T08:21:30.719Z,1.77
2022-12-20T08:23:57.812Z,2.00
2022-12-20T08:26:25.195Z,2.50
2022-12-20T08:28:52.317Z,2.10
2022-12-20T08:31:19.434Z,2.00
2022-12-20T08:33:46.632Z,1.98
2022-12-20T08:36:14.342Z,1.90
2022-12-20T08:38:41.975Z,2.00
2022-12-20T08:41:10.989Z,2.00
2022-12-20T08:43:38.358Z,1.83
2022-12-20T08:46:07.008Z,2.40
2022-12-20T08:48:34.603Z,1.98
2022-12-20T08:51:03.345Z,2.00
2022-12-20T08:53:30.973Z,1.85
2022-12-20T08:56:27.839Z,1.73
2022-12-20T08:58:54.990Z,2.20
2022-12-20T09:01:22.945Z,1.95
2022-12-20T09:03:50.313Z,2.30
2022-12-20T09:06:19.830Z,1.83
2022-12-20T09:08:47.116Z,2.13
2022-12-20T09:11:15.889Z,1.88
2022-12-20T09:13:44.719Z,1.83
2022-12-20T09:16:13.228Z,2.28
2022-12-20T09:18:40.681Z,1.73
2022-12-20T09:21:08.280Z,1.80
2022-12-20T09:23:36.986Z,1.92
2022-12-20T09:26:09.024Z,1.90
2022-12-20T09:31:04.852Z,1.90
2022-12-20T09:33:32.603Z,1.67
2022-12-20T09:36:00.254Z,1.80
2022-12-20T09:38:27.865Z,2.22
2022-12-20T09:40:56.641Z,1.88
2022-12-20T09:43:24.326Z,1.80
2022-12-20T09:45:54.567Z,1.88
2022-12-20T09:48:26.459Z,1.70
2022-12-20T09:50:56.557Z,1.77
2022-12-20T09:53:49.855Z,1.58
2022-12-20T09:56:21.693Z,1.98
2022-12-20T09:59:09.099Z,2.33
2022-12-20T10:01:39.901Z,2.03
2022-12-20T10:04:08.545Z,1.70
2022-12-20T10:06:35.775Z,2.40
2022-12-20T10:09:04.228Z,2.05
2022-12-20T10:11:43.374Z,1.95
2022-12-20T10:14:15.207Z,1.88
2022-12-20T10:16:51.760Z,1.95
2022-12-20T10:19:27.616Z,1.85
2022-12-20T10:22:06.769Z,1.80
2022-12-20T10:24:34.961Z,2.10
2022-12-20T10:27:21.484Z,2.10
2022-12-20T10:29:49.981Z,2.20
2022-12-20T10:32:21.589Z,1.95
2022-12-20T10:35:11.954Z,2.03
2022-12-20T10:37:41.306Z,2.35
2022-12-20T10:40:46.360Z,2.40
2022-12-20T10:43:20.200Z,2.30
2022-12-20T10:45:57.189Z,1.98
2022-12-20T10:48:30.213Z,2.20
2022-12-20T10:51:02.066Z,2.28
2022-12-20T10:53:30.022Z,2.00
2022-12-20T10:56:13.838Z,2.45
2022-12-20T10:58:41.000Z,2.53
2022-12-20T11:01:11.165Z,2.25
2022-12-20T11:03:50.388Z,2.13
2022-12-20T11:06:18.332Z,2.25
2022-12-20T11:08:51.458Z,2.17
2022-12-20T11:11:22.827Z,2.42
2022-12-20T11:13:50.660Z,2.05
2022-12-20T11:16:31.087Z,2.40
2022-12-20T11:19:06.694Z,2.22
2022-12-20T11:21:54.663Z,2.60
2022-12-20T11:24:31.206Z,2.20
2022-12-20T11:26:58.302Z,2.55
2022-12-20T11:29:34.636Z,2.55
2022-12-20T11:32:16.552Z,2.63
2022-12-20T11:35:00.381Z,2.22
2022-12-20T11:37:29.322Z,2.05
2022-12-20T11:40:02.212Z,2.00
2022-12-20T11:42:29.548Z,2.20
2022-12-20T11:45:10.822Z,1.77
2022-12-20T11:47:47.269Z,1.83
2022-12-20T11:50:21.137Z,2.15
2022-12-20T11:52:48.261Z,2.30
2022-12-20T11:55:22.680Z,2.03
2022-12-20T12:00:49.000Z,2.13
2022-12-20T12:03:26.830Z,2.53
2022-12-20T12:05:55.582Z,2.20
2022-12-20T12:08:26.204Z,2.58
2022-12-20T12:10:59.359Z,2.60
2022-12-20T12:13:28.586Z,2.55
2022-12-20T12:16:08.867Z,2.53
2022-12-20T12:18:36.672Z,2.42
2022-12-20T12:21:10.497Z,2.53
2022-12-20T12:23:37.594Z,2.42
2022-12-20T12:26:25.082Z,2.35
2022-12-20T12:28:56.169Z,2.80
2022-12-20T12:31:27.436Z,2.73
2022-12-20T12:34:13.394Z,2.60
2022-12-20T12:36:56.912Z,2.50
2022-12-20T12:39:42.296Z,2.50
2022-12-20T12:42:35.768Z,2.60
2022-12-20T12:45:06.185Z,2.67
2022-12-20T12:47:49.245Z,2.88
2022-12-20T12:50:22.909Z,2.60
2022-12-20T12:52:55.877Z,2.38
2022-12-20T12:55:41.794Z,2.85
2022-12-20T12:58:15.018Z,3.00
2022-12-20T13:00:49.427Z,2.85
2022-12-20T13:03:18.238Z,2.75
2022-12-20T13:05:45.941Z,2.65
2022-12-20T13:08:16.694Z,3.35
2022-12-20T13:10:43.796Z,3.20
2022-12-20T13:13:14.811Z,2.88
2022-12-20T13:15:41.986Z,2.88
2022-12-20T13:18:09.144Z,3.03
2022-12-20T13:20:36.859Z,3.00
2022-12-20T13:23:12.933Z,3.08
2022-12-20T13:25:51.645Z,3.00
2022-12-20T13:28:24.970Z,3.08
2022-12-20T13:31:01.628Z,3.03
2022-12-20T13:33:40.082Z,3.15
2022-12-20T13:36:09.906Z,3.17
2022-12-20T13:38:40.239Z,3.00
2022-12-20T13:41:13.109Z,3.00
2022-12-20T13:43:44.847Z,3.03
2022-12-20T13:46:12.126Z,3.05
2022-12-20T13:48:39.157Z,3.28
2022-12-20T13:51:10.902Z,3.15
2022-12-20T13:53:38.787Z,3.53
2022-12-20T13:56:29.688Z,3.47
2022-12-20T13:58:58.264Z,3.25
2022-12-20T14:01:26.750Z,3.90
2022-12-20T14:03:54.530Z,3.63
2022-12-20T14:06:26.778Z,3.45
2022-12-20T14:08:54.380Z,3.88
2022-12-20T14:11:23.290Z,3.80
2022-12-20T14:13:56.495Z,3.83
2022-12-20T14:16:24.338Z,3.80
2022-12-20T14:19:12.649Z,3.65
2022-12-20T14:21:42.482Z,3.72
2022-12-20T14:24:15.848Z,4.15
2022-12-20T14:26:44.773Z,4.32
2022-12-20T14:29:13.745Z,4.38
2022-12-20T14:31:42.010Z,3.83
2022-12-20T14:34:12.204Z,4.15
2022-12-20T14:36:40.658Z,3.58
2022-12-20T14:39:24.702Z,4.32
2022-12-20T14:41:58.097Z,3.85
2022-12-20T14:44:27.180Z,4.40
2022-12-20T14:46:56.363Z,5.32
2022-12-20T14:49:38.331Z,4.30
2022-12-20T14:52:20.174Z,4.25
2022-12-20T14:55:11.849Z,4.70
2022-12-20T14:57:38.944Z,4.25
2022-12-20T15:00:07.258Z,4.43
2022-12-20T15:02:37.811Z,4.60
2022-12-20T15:05:28.379Z,4.88
2022-12-20T15:07:55.493Z,4.15
2022-12-20T15:10:23.627Z,4.40
2022-12-20T15:12:50.742Z,4.88
2022-12-20T15:15:31.719Z,4.40
2022-12-20T15:17:58.820Z,4.18
2022-12-20T15:20:25.950Z,4.20
2022-12-20T15:22:52.996Z,4.60
2022-12-20T15:25:20.121Z,4.57
2022-12-20T15:27:47.743Z,4.68
2022-12-20T15:30:14.960Z,4.03
2022-12-20T15:32:54.570Z,4.75
2022-12-20T15:35:23.026Z,4.30
2022-12-20T15:37:50.133Z,4.57
2022-12-20T15:40:17.383Z,4.55
2022-12-20T15:42:44.620Z,3.78
2022-12-20T15:45:15.396Z,4.55
2022-12-20T15:47:42.789Z,4.57
2022-12-20T15:50:11.090Z,4.55
2022-12-20T15:52:38.321Z,5.35
2022-12-20T15:55:06.989Z,4.85
2022-12-20T15:57:34.676Z,4.75
2022-12-20T16:00:03.512Z,4.82
2022-12-20T16:02:31.795Z,5.50
2022-12-20T16:04:59.512Z,5.30
2022-12-20T16:07:26.755Z,5.72
2022-12-20T16:09:54.263Z,5.28
2022-12-20T16:12:21.490Z,4.97
2022-12-20T16:14:48.794Z,5.63
2022-12-20T16:17:16.604Z,5.07
2022-12-20T16:19:44.359Z,5.55
2022-12-20T16:22:22.243Z,5.45
2022-12-20T16:24:49.811Z,5.53
2022-12-20T16:27:17.156Z,4.93
2022-12-20T16:29:45.533Z,5.50
2022-12-20T16:32:17.293Z,6.07
2022-12-20T16:34:44.543Z,5.40
2022-12-20T16:37:11.992Z,5.93
2022-12-20T16:39:39.190Z,6.13
2022-12-20T16:42:15.921Z,6.55
2022-12-20T16:44:45.134Z,6.05
2022-12-20T16:47:12.878Z,6.85
2022-12-20T16:49:44.504Z,6.75
2022-12-20T16:52:18.510Z,6.38
2022-12-20T16:54:45.635Z,6.30
2022-12-20T16:57:12.763Z,6.97
2022-12-20T16:59:40.003Z,6.70
2022-12-20T17:02:21.750Z,6.93
2022-12-20T17:04:48.955Z,7.65
2022-12-20T17:07:16.335Z,6.63
2022-12-20T17:12:28.304Z,7.88
2022-12-20T17:14:55.376Z,7.18
2022-12-20T17:17:22.459Z,7.05
2022-12-20T17:19:49.605Z,7.70
2022-12-20T17:22:24.730Z,7.57
2022-12-20T17:24:51.934Z,7.25
2022-12-20T17:27:19.339Z,7.68
2022-12-20T17:29:46.553Z,7.90
2022-12-20T17:32:33.902Z,7.18
2022-12-20T17:35:01.081Z,7.10
2022-12-20T17:37:28.261Z,8.07
2022-12-20T17:39:55.467Z,7.55
2022-12-20T17:42:28.796Z,6.78
2022-12-20T17:44:58.239Z,7.15
2022-12-20T17:47:25.297Z,7.90
2022-12-20T17:49:52.502Z,7.78
2022-12-20T17:52:21.633Z,7.50
2022-12-20T17:54:48.771Z,7.88
2022-12-20T17:57:16.694Z,7.72
2022-12-20T17:59:44.120Z,8.32
2022-12-20T18:02:21.061Z,7.80
2022-12-20T18:04:48.492Z,7.35
2022-12-20T18:07:15.662Z,6.80
2022-12-20T18:09:42.772Z,7.53
2022-12-20T18:12:11.301Z,7.18
2022-12-20T18:14:38.515Z,6.72
2022-12-20T18:17:05.720Z,7.45
2022-12-20T18:19:32.901Z,7.40
2022-12-20T18:22:00.197Z,7.55
2022-12-20T18:24:27.610Z,7.20
2022-12-20T18:26:54.754Z,7.25
2022-12-20T18:29:21.889Z,7.65
2022-12-20T18:31:49.614Z,7.22
2022-12-20T18:34:17.148Z,7.05
2022-12-20T18:36:49.981Z,7.93
2022-12-20T18:39:17.858Z,8.60
2022-12-20T18:41:45.851Z,7.43
2022-12-20T18:44:16.575Z,7.72
2022-12-20T18:46:47.114Z,7.70
2022-12-20T18:49:15.031Z,8.00
2022-12-20T18:51:44.035Z,7.75
2022-12-20T18:54:13.031Z,7.90
2022-12-20T18:56:40.954Z,8.60
2022-12-20T18:59:11.931Z,7.65
2022-12-20T19:04:08.082Z,9.00
2022-12-20T19:06:35.731Z,8.18
2022-12-20T19:09:04.117Z,8.68
2022-12-20T19:11:31.344Z,8.32
2022-12-20T19:13:58.519Z,8.13
2022-12-20T19:16:28.804Z,8.45
2022-12-20T19:18:56.082Z,9.00
2022-12-20T19:21:24.565Z,8.35
2022-12-20T19:23:53.477Z,8.57
2022-12-20T19:26:21.672Z,8.13
2022-12-20T19:28:49.014Z,8.75
2022-12-20T19:31:22.460Z,7.90
2022-12-20T19:33:50.474Z,8.05
2022-12-20T19:36:19.469Z,8.13
2022-12-20T19:38:47.620Z,8.10
2022-12-20T19:41:15.307Z,8.82
2022-12-20T19:43:42.473Z,8.73
2022-12-20T19:46:09.981Z,7.45
2022-12-20T19:48:37.417Z,9.05
2022-12-20T19:51:05.578Z,8.40
2022-12-20T19:53:32.889Z,8.75
2022-12-20T19:56:00.050Z,8.38
2022-12-20T19:58:27.256Z,7.70
2022-12-20T20:00:55.055Z,9.18
2022-12-20T20:03:22.318Z,7.00
2022-12-20T20:05:49.729Z,8.75
2022-12-20T20:08:17.109Z,8.85
2022-12-20T20:10:44.783Z,8.60
2022-12-20T20:13:12.114Z,8.27
2022-12-20T20:15:39.375Z,8.60
2022-12-20T20:18:07.393Z,8.55
2022-12-20T20:20:34.950Z,9.07
2022-12-20T20:23:02.081Z,8.70
2022-12-20T20:25:29.329Z,9.50
2022-12-20T20:27:56.537Z,9.65
2022-12-20T20:30:23.808Z,10.52
2022-12-20T20:32:50.970Z,10.25
2022-12-20T20:35:18.177Z,10.32
2022-12-20T20:37:45.432Z,11.00
2022-12-20T20:40:12.988Z,9.93
2022-12-20T20:42:40.138Z,11.50
2022-12-20T20:45:07.525Z,10.77
2022-12-20T20:47:34.669Z,10.73
2022-12-20T20:50:01.785Z,11.63
2022-12-20T20:52:28.873Z,11.48
2022-12-20T20:54:55.951Z,11.10
2022-12-20T20:57:23.071Z,11.45
2022-12-20T20:59:50.187Z,10.80
2022-12-20T21:02:20.791Z,11.23
2022-12-20T21:05:14.452Z,11.55
2022-12-20T21:07:36.450Z,10.75
2022-12-20T21:10:04.254Z,12.38
2022-12-20T21:12:31.533Z,12.38
2022-12-20T21:17:46.151Z,10.82
2022-12-20T21:20:13.634Z,11.80
2022-12-20T21:22:40.875Z,11.48
2022-12-20T21:25:08.277Z,11.80
2022-12-20T21:27:35.464Z,13.45
2022-12-20T21:30:02.767Z,13.77
2022-12-20T21:32:29.937Z,11.25
2022-12-20T21:34:57.101Z,12.05
2022-12-20T21:37:24.349Z,11.73
2022-12-20T21:39:51.600Z,12.52
2022-12-20T21:42:18.758Z,12.82
2022-12-20T21:44:45.945Z,12.10
2022-12-20T21:47:13.255Z,12.80
2022-12-20T21:49:40.342Z,12.57
2022-12-20T21:52:07.539Z,12.30
2022-12-20T21:54:34.623Z,12.38
2022-12-20T21:57:01.752Z,12.40
2022-12-20T21:59:29.004Z,13.98
2022-12-20T22:01:57.489Z,13.45
2022-12-20T22:04:25.695Z,13.50
2022-12-20T22:06:52.856Z,12.40
2022-12-20T22:09:19.939Z,12.73
2022-12-20T22:11:48.588Z,12.93
2022-12-20T22:14:16.237Z,13.70
2022-12-20T22:16:43.786Z,14.32
2022-12-20T22:19:13.875Z,13.25
2022-12-20T22:21:41.214Z,14.07
2022-12-20T22:24:09.517Z,14.77
2022-12-20T22:26:37.018Z,13.70
2022-12-20T22:29:05.495Z,13.93
2022-12-20T22:31:32.896Z,13.32
2022-12-20T22:34:00.390Z,13.85
2022-12-20T22:36:27.800Z,13.52
2022-12-20T22:38:55.709Z,13.07
2022-12-20T22:41:24.037Z,14.60
2022-12-20T22:43:51.219Z,13.95
2022-12-20T22:46:30.717Z,13.77
2022-12-20T22:49:01.467Z,12.45
2022-12-20T22:51:30.951Z,13.93
2022-12-20T22:53:59.139Z,13.95
2022-12-20T22:56:26.633Z,13.13
2022-12-20T22:58:53.863Z,13.20
2022-12-20T23:01:21.384Z,14.82
2022-12-20T23:03:48.929Z,14.70
2022-12-20T23:06:17.374Z,14.63
2022-12-20T23:08:44.590Z,14.93
2022-12-20T23:11:41.544Z,13.55
2022-12-20T23:14:30.469Z,14.45
2022-12-20T23:16:57.655Z,12.63
2022-12-20T23:19:24.816Z,14.82
2022-12-20T23:22:10.558Z,15.00
2022-12-20T23:24:37.672Z,14.85
2022-12-20T23:27:04.786Z,15.18
2022-12-20T23:29:32.126Z,13.95
2022-12-20T23:31:59.360Z,13.60
2022-12-20T23:34:26.670Z,14.32
2022-12-20T23:36:53.826Z,14.02
2022-12-20T23:39:20.949Z,13.95
2022-12-20T23:41:48.050Z,15.13
2022-12-20T23:44:15.166Z,14.85
2022-12-20T23:46:42.366Z,14.05
2022-12-20T23:49:09.431Z,13.30
2022-12-20T23:51:36.640Z,14.45
2022-12-20T23:54:03.766Z,14.90
2022-12-20T23:56:30.954Z,14.68
2022-12-20T23:58:58.327Z,15.88
